sensor_id;sensor_type;location;lat;lon;timestamp;P1;durP1;ratioP1;P2;durP2;ratioP2
29916;SDS011;16786;49.466;11.068;2023-09-19T00:00:38;6.47;;;2.33;;
29916;SDS011;16786;49.466;11.068;2023-09-19T00:03:09;3.28;;;2.03;;
29916;SDS011;16786;49.466;11.068;2023-09-19T00:05:38;4.05;;;2.20;;
29916;SDS011;16786;49.466;11.068;2023-09-19T00:08:06;3.72;;;1.88;;
29916;SDS011;16786;49.466;11.068;2023-09-19T00:10:33;4.72;;;2.10;;
29916;SDS011;16786;49.466;11.068;2023-09-19T00:13:06;4.53;;;2.38;;
29916;SDS011;16786;49.466;11.068;2023-09-19T00:15:42;5.40;;;2.85;;
29916;SDS011;16786;49.466;11.068;2023-09-19T00:18:17;5.97;;;2.60;;
29916;SDS011;16786;49.466;11.068;2023-09-19T00:20:48;5.10;;;2.42;;
29916;SDS011;16786;49.466;11.068;2023-09-19T00:23:16;5.53;;;2.13;;
29916;SDS011;16786;49.466;11.068;2023-09-19T00:25:46;4.95;;;2.63;;
29916;SDS011;16786;49.466;11.068;2023-09-19T00:28:14;4.53;;;2.28;;
29916;SDS011;16786;49.466;11.068;2023-09-19T00:30:44;3.97;;;2.60;;
29916;SDS011;16786;49.466;11.068;2023-09-19T00:33:17;5.65;;;2.33;;
29916;SDS011;16786;49.466;11.068;2023-09-19T00:35:49;7.07;;;2.60;;
29916;SDS011;16786;49.466;11.068;2023-09-19T00:38:18;4.20;;;2.28;;
29916;SDS011;16786;49.466;11.068;2023-09-19T00:40:54;5.22;;;2.50;;
29916;SDS011;16786;49.466;11.068;2023-09-19T00:43:26;6.40;;;2.45;;
29916;SDS011;16786;49.466;11.068;2023-09-19T00:45:55;5.32;;;2.70;;
29916;SDS011;16786;49.466;11.068;2023-09-19T00:48:24;8.40;;;2.78;;
29916;SDS011;16786;49.466;11.068;2023-09-19T00:50:57;6.78;;;2.50;;
29916;SDS011;16786;49.466;11.068;2023-09-19T00:53:28;4.68;;;2.80;;
29916;SDS011;16786;49.466;11.068;2023-09-19T00:55:57;5.97;;;2.65;;
29916;SDS011;16786;49.466;11.068;2023-09-19T00:58:26;7.82;;;3.13;;
29916;SDS011;16786;49.466;11.068;2023-09-19T01:01:00;7.88;;;3.05;;
29916;SDS011;16786;49.466;11.068;2023-09-19T01:03:29;6.50;;;2.40;;
29916;SDS011;16786;49.466;11.068;2023-09-19T01:05:57;4.82;;;2.60;;
29916;SDS011;16786;49.466;11.068;2023-09-19T01:08:27;6.13;;;2.97;;
29916;SDS011;16786;49.466;11.068;2023-09-19T01:10:59;6.25;;;2.70;;
29916;SDS011;16786;49.466;11.068;2023-09-19T01:16:38;4.15;;;2.65;;
29916;SDS011;16786;49.466;11.068;2023-09-19T01:19:25;6.38;;;2.65;;
29916;SDS011;16786;49.466;11.068;2023-09-19T01:22:16;7.07;;;4.22;;
29916;SDS011;16786;49.466;11.068;2023-09-19T01:30:24;5.70;;;2.88;;
29916;SDS011;16786;49.466;11.068;2023-09-19T01:33:01;4.55;;;2.45;;
29916;SDS011;16786;49.466;11.068;2023-09-19T01:35:33;4.80;;;2.80;;
29916;SDS011;16786;49.466;11.068;2023-09-19T01:38:06;4.07;;;2.60;;
29916;SDS011;16786;49.466;11.068;2023-09-19T01:40:38;4.57;;;2.50;;
29916;SDS011;16786;49.466;11.068;2023-09-19T01:43:12;4.32;;;2.15;;
29916;SDS011;16786;49.466;11.068;2023-09-19T01:48:42;4.68;;;2.40;;
29916;SDS011;16786;49.466;11.068;2023-09-19T01:51:29;4.97;;;2.25;;
29916;SDS011;16786;49.466;11.068;2023-09-19T01:54:10;3.80;;;2.10;;
29916;SDS011;16786;49.466;11.068;2023-09-19T01:56:50;3.45;;;2.10;;
29916;SDS011;16786;49.466;11.068;2023-09-19T01:59:30;4.95;;;2.03;;
29916;SDS011;16786;49.466;11.068;2023-09-19T02:02:07;5.47;;;2.28;;
29916;SDS011;16786;49.466;11.068;2023-09-19T02:04:36;4.43;;;2.42;;
29916;SDS011;16786;49.466;11.068;2023-09-19T02:07:03;3.47;;;2.05;;
29916;SDS011;16786;49.466;11.068;2023-09-19T02:09:32;4.55;;;2.03;;
29916;SDS011;16786;49.466;11.068;2023-09-19T02:12:02;4.10;;;2.20;;
29916;SDS011;16786;49.466;11.068;2023-09-19T02:14:31;3.92;;;2.08;;
29916;SDS011;16786;49.466;11.068;2023-09-19T02:16:59;5.05;;;2.22;;
29916;SDS011;16786;49.466;11.068;2023-09-19T02:19:26;3.38;;;1.98;;
29916;SDS011;16786;49.466;11.068;2023-09-19T02:21:54;5.00;;;2.40;;
29916;SDS011;16786;49.466;11.068;2023-09-19T02:24:21;4.97;;;1.85;;
29916;SDS011;16786;49.466;11.068;2023-09-19T02:26:53;5.32;;;2.05;;
29916;SDS011;16786;49.466;11.068;2023-09-19T02:29:21;4.55;;;2.10;;
29916;SDS011;16786;49.466;11.068;2023-09-19T02:31:49;6.13;;;2.15;;
29916;SDS011;16786;49.466;11.068;2023-09-19T02:34:16;4.18;;;1.92;;
29916;SDS011;16786;49.466;11.068;2023-09-19T02:36:44;3.50;;;1.88;;
29916;SDS011;16786;49.466;11.068;2023-09-19T02:39:11;2.47;;;1.80;;
29916;SDS011;16786;49.466;11.068;2023-09-19T02:41:39;3.92;;;2.00;;
29916;SDS011;16786;49.466;11.068;2023-09-19T02:44:09;3.50;;;2.10;;
29916;SDS011;16786;49.466;11.068;2023-09-19T02:46:37;5.97;;;2.15;;
29916;SDS011;16786;49.466;11.068;2023-09-19T02:49:04;4.93;;;2.17;;
29916;SDS011;16786;49.466;11.068;2023-09-19T02:51:34;4.30;;;1.83;;
29916;SDS011;16786;49.466;11.068;2023-09-19T02:54:01;4.13;;;2.00;;
29916;SDS011;16786;49.466;11.068;2023-09-19T02:56:30;5.07;;;2.17;;
29916;SDS011;16786;49.466;11.068;2023-09-19T02:58:58;3.47;;;2.20;;
29916;SDS011;16786;49.466;11.068;2023-09-19T03:01:27;4.68;;;2.25;;
29916;SDS011;16786;49.466;11.068;2023-09-19T03:03:55;7.38;;;2.15;;
29916;SDS011;16786;49.466;11.068;2023-09-19T03:06:22;3.70;;;1.90;;
29916;SDS011;16786;49.466;11.068;2023-09-19T03:08:50;5.32;;;2.22;;
29916;SDS011;16786;49.466;11.068;2023-09-19T03:11:20;3.67;;;1.80;;
29916;SDS011;16786;49.466;11.068;2023-09-19T03:13:52;4.43;;;2.28;;
29916;SDS011;16786;49.466;11.068;2023-09-19T03:16:21;3.88;;;2.10;;
29916;SDS011;16786;49.466;11.068;2023-09-19T03:18:51;4.40;;;2.75;;
29916;SDS011;16786;49.466;11.068;2023-09-19T03:21:19;2.95;;;1.60;;
29916;SDS011;16786;49.466;11.068;2023-09-19T03:23:46;3.58;;;2.00;;
29916;SDS011;16786;49.466;11.068;2023-09-19T03:26:14;4.28;;;2.17;;
29916;SDS011;16786;49.466;11.068;2023-09-19T03:28:42;4.85;;;1.85;;
29916;SDS011;16786;49.466;11.068;2023-09-19T03:31:11;4.15;;;1.83;;
29916;SDS011;16786;49.466;11.068;2023-09-19T03:33:38;3.92;;;2.15;;
29916;SDS011;16786;49.466;11.068;2023-09-19T03:36:06;7.05;;;2.10;;
29916;SDS011;16786;49.466;11.068;2023-09-19T03:38:34;4.40;;;2.28;;
29916;SDS011;16786;49.466;11.068;2023-09-19T03:41:02;8.45;;;2.20;;
29916;SDS011;16786;49.466;11.068;2023-09-19T03:43:31;4.97;;;2.20;;
29916;SDS011;16786;49.466;11.068;2023-09-19T03:46:02;4.00;;;2.30;;
29916;SDS011;16786;49.466;11.068;2023-09-19T03:48:32;4.50;;;2.38;;
29916;SDS011;16786;49.466;11.068;2023-09-19T03:51:01;3.97;;;2.08;;
29916;SDS011;16786;49.466;11.068;2023-09-19T03:53:29;5.22;;;2.15;;
29916;SDS011;16786;49.466;11.068;2023-09-19T03:55:56;4.30;;;1.92;;
29916;SDS011;16786;49.466;11.068;2023-09-19T03:58:24;3.97;;;2.00;;
29916;SDS011;16786;49.466;11.068;2023-09-19T04:00:54;8.43;;;2.10;;
29916;SDS011;16786;49.466;11.068;2023-09-19T04:03:23;5.18;;;2.47;;
29916;SDS011;16786;49.466;11.068;2023-09-19T04:05:51;3.88;;;1.95;;
29916;SDS011;16786;49.466;11.068;2023-09-19T04:08:18;8.93;;;2.20;;
29916;SDS011;16786;49.466;11.068;2023-09-19T04:10:45;5.70;;;2.35;;
29916;SDS011;16786;49.466;11.068;2023-09-19T04:13:13;3.50;;;1.80;;
29916;SDS011;16786;49.466;11.068;2023-09-19T04:15:40;2.67;;;1.80;;
29916;SDS011;16786;49.466;11.068;2023-09-19T04:18:08;6.57;;;2.00;;
29916;SDS011;16786;49.466;11.068;2023-09-19T04:20:35;5.55;;;1.90;;
29916;SDS011;16786;49.466;11.068;2023-09-19T04:23:02;5.65;;;1.90;;
29916;SDS011;16786;49.466;11.068;2023-09-19T04:25:32;4.07;;;2.30;;
29916;SDS011;16786;49.466;11.068;2023-09-19T04:27:59;4.75;;;2.22;;
29916;SDS011;16786;49.466;11.068;2023-09-19T04:30:26;5.60;;;2.10;;
29916;SDS011;16786;49.466;11.068;2023-09-19T04:32:54;7.07;;;1.95;;
29916;SDS011;16786;49.466;11.068;2023-09-19T04:35:22;5.38;;;2.38;;
29916;SDS011;16786;49.466;11.068;2023-09-19T04:37:49;6.40;;;2.00;;
29916;SDS011;16786;49.466;11.068;2023-09-19T04:40:17;4.72;;;1.90;;
29916;SDS011;16786;49.466;11.068;2023-09-19T04:42:52;6.07;;;2.20;;
29916;SDS011;16786;49.466;11.068;2023-09-19T04:45:24;3.95;;;2.13;;
29916;SDS011;16786;49.466;11.068;2023-09-19T04:47:51;3.40;;;1.83;;
29916;SDS011;16786;49.466;11.068;2023-09-19T04:50:19;6.35;;;2.40;;
29916;SDS011;16786;49.466;11.068;2023-09-19T04:52:49;6.38;;;2.10;;
29916;SDS011;16786;49.466;11.068;2023-09-19T04:55:17;5.80;;;2.05;;
29916;SDS011;16786;49.466;11.068;2023-09-19T04:57:46;5.18;;;2.42;;
29916;SDS011;16786;49.466;11.068;2023-09-19T05:00:16;6.47;;;2.45;;
29916;SDS011;16786;49.466;11.068;2023-09-19T05:02:48;5.93;;;2.70;;
29916;SDS011;16786;49.466;11.068;2023-09-19T05:05:16;6.53;;;2.30;;
29916;SDS011;16786;49.466;11.068;2023-09-19T05:07:44;4.57;;;2.13;;
29916;SDS011;16786;49.466;11.068;2023-09-19T05:10:13;5.88;;;2.67;;
29916;SDS011;16786;49.466;11.068;2023-09-19T05:12:41;4.47;;;2.13;;
29916;SDS011;16786;49.466;11.068;2023-09-19T05:15:08;6.25;;;2.33;;
29916;SDS011;16786;49.466;11.068;2023-09-19T05:17:36;4.70;;;1.95;;
29916;SDS011;16786;49.466;11.068;2023-09-19T05:20:03;4.18;;;1.92;;
29916;SDS011;16786;49.466;11.068;2023-09-19T05:22:43;5.60;;;2.20;;
29916;SDS011;16786;49.466;11.068;2023-09-19T05:25:12;5.40;;;2.42;;
29916;SDS011;16786;49.466;11.068;2023-09-19T05:27:45;4.03;;;2.10;;
29916;SDS011;16786;49.466;11.068;2023-09-19T05:30:12;5.55;;;2.38;;
29916;SDS011;16786;49.466;11.068;2023-09-19T05:32:41;5.53;;;2.25;;
29916;SDS011;16786;49.466;11.068;2023-09-19T05:35:09;4.65;;;2.25;;
29916;SDS011;16786;49.466;11.068;2023-09-19T05:37:39;4.03;;;2.10;;
29916;SDS011;16786;49.466;11.068;2023-09-19T05:40:07;5.65;;;2.65;;
29916;SDS011;16786;49.466;11.068;2023-09-19T05:42:38;4.88;;;2.10;;
29916;SDS011;16786;49.466;11.068;2023-09-19T05:45:08;5.88;;;2.40;;
29916;SDS011;16786;49.466;11.068;2023-09-19T05:47:39;5.15;;;2.45;;
29916;SDS011;16786;49.466;11.068;2023-09-19T05:50:12;4.75;;;2.35;;
29916;SDS011;16786;49.466;11.068;2023-09-19T05:52:41;6.57;;;2.30;;
29916;SDS011;16786;49.466;11.068;2023-09-19T05:55:09;5.95;;;2.63;;
29916;SDS011;16786;49.466;11.068;2023-09-19T05:57:37;6.95;;;2.67;;
29916;SDS011;16786;49.466;11.068;2023-09-19T06:00:11;4.13;;;2.05;;
29916;SDS011;16786;49.466;11.068;2023-09-19T06:02:38;4.22;;;2.60;;
29916;SDS011;16786;49.466;11.068;2023-09-19T06:05:07;7.20;;;2.70;;
29916;SDS011;16786;49.466;11.068;2023-09-19T06:07:37;8.23;;;2.90;;
29916;SDS011;16786;49.466;11.068;2023-09-19T06:10:04;4.07;;;2.78;;
29916;SDS011;16786;49.466;11.068;2023-09-19T06:12:39;5.60;;;2.40;;
29916;SDS011;16786;49.466;11.068;2023-09-19T06:15:07;4.00;;;2.30;;
29916;SDS011;16786;49.466;11.068;2023-09-19T06:17:35;4.40;;;2.40;;
29916;SDS011;16786;49.466;11.068;2023-09-19T06:20:05;6.95;;;2.47;;
29916;SDS011;16786;49.466;11.068;2023-09-19T06:22:42;3.60;;;2.30;;
29916;SDS011;16786;49.466;11.068;2023-09-19T06:25:11;6.07;;;2.75;;
29916;SDS011;16786;49.466;11.068;2023-09-19T06:27:42;13.02;;;3.05;;
29916;SDS011;16786;49.466;11.068;2023-09-19T06:30:10;5.60;;;2.20;;
29916;SDS011;16786;49.466;11.068;2023-09-19T06:32:38;10.60;;;3.10;;
29916;SDS011;16786;49.466;11.068;2023-09-19T06:35:05;8.73;;;2.38;;
29916;SDS011;16786;49.466;11.068;2023-09-19T06:37:38;11.90;;;2.63;;
29916;SDS011;16786;49.466;11.068;2023-09-19T06:42:44;9.07;;;2.30;;
29916;SDS011;16786;49.466;11.068;2023-09-19T06:45:13;4.47;;;2.38;;
29916;SDS011;16786;49.466;11.068;2023-09-19T06:50:12;5.07;;;2.05;;
29916;SDS011;16786;49.466;11.068;2023-09-19T06:52:41;4.45;;;2.42;;
29916;SDS011;16786;49.466;11.068;2023-09-19T06:55:08;4.07;;;2.40;;
29916;SDS011;16786;49.466;11.068;2023-09-19T06:57:38;4.25;;;2.30;;
29916;SDS011;16786;49.466;11.068;2023-09-19T07:00:17;4.25;;;2.50;;
29916;SDS011;16786;49.466;11.068;2023-09-19T07:03:01;3.95;;;2.33;;
29916;SDS011;16786;49.466;11.068;2023-09-19T07:05:37;7.38;;;2.72;;
29916;SDS011;16786;49.466;11.068;2023-09-19T07:08:07;5.93;;;2.80;;
29916;SDS011;16786;49.466;11.068;2023-09-19T07:10:36;4.00;;;2.72;;
29916;SDS011;16786;49.466;11.068;2023-09-19T07:13:04;4.45;;;2.70;;
29916;SDS011;16786;49.466;11.068;2023-09-19T07:15:36;5.90;;;2.72;;
29916;SDS011;16786;49.466;11.068;2023-09-19T07:18:13;4.75;;;2.97;;
29916;SDS011;16786;49.466;11.068;2023-09-19T07:20:44;5.15;;;3.08;;
29916;SDS011;16786;49.466;11.068;2023-09-19T07:23:16;5.80;;;3.45;;
29916;SDS011;16786;49.466;11.068;2023-09-19T07:25:45;5.75;;;3.20;;
29916;SDS011;16786;49.466;11.068;2023-09-19T07:28:13;5.93;;;3.10;;
29916;SDS011;16786;49.466;11.068;2023-09-19T07:30:40;6.72;;;3.20;;
29916;SDS011;16786;49.466;11.068;2023-09-19T07:33:08;4.75;;;3.45;;
29916;SDS011;16786;49.466;11.068;2023-09-19T07:35:38;4.35;;;3.13;;
29916;SDS011;16786;49.466;11.068;2023-09-19T07:38:08;6.38;;;3.15;;
29916;SDS011;16786;49.466;11.068;2023-09-19T07:40:38;7.28;;;3.20;;
29916;SDS011;16786;49.466;11.068;2023-09-19T07:43:06;6.68;;;3.70;;
29916;SDS011;16786;49.466;11.068;2023-09-19T07:45:33;5.15;;;3.33;;
29916;SDS011;16786;49.466;11.068;2023-09-19T07:48:03;5.38;;;3.40;;
29916;SDS011;16786;49.466;11.068;2023-09-19T07:50:33;10.10;;;3.67;;
29916;SDS011;16786;49.466;11.068;2023-09-19T07:53:03;6.53;;;3.13;;
29916;SDS011;16786;49.466;11.068;2023-09-19T07:55:32;5.45;;;3.30;;
29916;SDS011;16786;49.466;11.068;2023-09-19T07:58:01;6.20;;;3.80;;
29916;SDS011;16786;49.466;11.068;2023-09-19T08:00:30;6.28;;;3.45;;
29916;SDS011;16786;49.466;11.068;2023-09-19T08:03:01;6.80;;;3.50;;
29916;SDS011;16786;49.466;11.068;2023-09-19T08:05:41;6.25;;;3.60;;
29916;SDS011;16786;49.466;11.068;2023-09-19T08:08:10;7.20;;;4.03;;
29916;SDS011;16786;49.466;11.068;2023-09-19T08:10:40;4.10;;;3.45;;
29916;SDS011;16786;49.466;11.068;2023-09-19T08:13:09;4.78;;;3.42;;
29916;SDS011;16786;49.466;11.068;2023-09-19T08:15:43;6.88;;;4.10;;
29916;SDS011;16786;49.466;11.068;2023-09-19T08:18:11;4.97;;;3.38;;
29916;SDS011;16786;49.466;11.068;2023-09-19T08:20:42;5.25;;;3.33;;
29916;SDS011;16786;49.466;11.068;2023-09-19T08:23:13;7.13;;;3.60;;
29916;SDS011;16786;49.466;11.068;2023-09-19T08:25:40;6.43;;;3.60;;
29916;SDS011;16786;49.466;11.068;2023-09-19T08:28:07;5.80;;;3.75;;
29916;SDS011;16786;49.466;11.068;2023-09-19T08:30:35;5.88;;;3.30;;
29916;SDS011;16786;49.466;11.068;2023-09-19T08:33:04;6.38;;;3.42;;
29916;SDS011;16786;49.466;11.068;2023-09-19T08:35:31;6.68;;;3.67;;
29916;SDS011;16786;49.466;11.068;2023-09-19T08:37:59;4.70;;;3.35;;
29916;SDS011;16786;49.466;11.068;2023-09-19T08:40:31;8.90;;;3.80;;
29916;SDS011;16786;49.466;11.068;2023-09-19T08:43:00;4.43;;;3.40;;
29916;SDS011;16786;49.466;11.068;2023-09-19T08:45:27;5.10;;;3.60;;
29916;SDS011;16786;49.466;11.068;2023-09-19T08:48:17;6.25;;;3.55;;
29916;SDS011;16786;49.466;11.068;2023-09-19T08:50:55;5.55;;;3.80;;
29916;SDS011;16786;49.466;11.068;2023-09-19T08:53:27;5.32;;;3.65;;
29916;SDS011;16786;49.466;11.068;2023-09-19T08:56:06;5.05;;;3.75;;
29916;SDS011;16786;49.466;11.068;2023-09-19T09:01:34;5.88;;;4.15;;
29916;SDS011;16786;49.466;11.068;2023-09-19T09:04:02;6.10;;;3.92;;
29916;SDS011;16786;49.466;11.068;2023-09-19T09:06:31;5.22;;;3.78;;
29916;SDS011;16786;49.466;11.068;2023-09-19T09:08:59;4.10;;;3.58;;
29916;SDS011;16786;49.466;11.068;2023-09-19T09:11:27;5.18;;;3.40;;
29916;SDS011;16786;49.466;11.068;2023-09-19T09:13:55;6.13;;;4.00;;
29916;SDS011;16786;49.466;11.068;2023-09-19T09:16:24;4.68;;;3.53;;
29916;SDS011;16786;49.466;11.068;2023-09-19T09:18:53;8.43;;;4.20;;
29916;SDS011;16786;49.466;11.068;2023-09-19T09:21:22;6.15;;;3.72;;
29916;SDS011;16786;49.466;11.068;2023-09-19T09:23:51;4.32;;;3.70;;
29916;SDS011;16786;49.466;11.068;2023-09-19T09:29:06;4.72;;;3.63;;
29916;SDS011;16786;49.466;11.068;2023-09-19T09:31:33;4.35;;;3.58;;
29916;SDS011;16786;49.466;11.068;2023-09-19T09:34:01;4.95;;;3.80;;
29916;SDS011;16786;49.466;11.068;2023-09-19T09:36:35;7.30;;;3.55;;
29916;SDS011;16786;49.466;11.068;2023-09-19T09:39:04;4.45;;;3.42;;
29916;SDS011;16786;49.466;11.068;2023-09-19T09:41:52;5.72;;;3.65;;
29916;SDS011;16786;49.466;11.068;2023-09-19T09:44:19;5.50;;;3.47;;
29916;SDS011;16786;49.466;11.068;2023-09-19T09:46:47;4.90;;;3.72;;
29916;SDS011;16786;49.466;11.068;2023-09-19T09:49:27;5.15;;;3.53;;
29916;SDS011;16786;49.466;11.068;2023-09-19T09:52:01;4.50;;;3.65;;
29916;SDS011;16786;49.466;11.068;2023-09-19T09:54:38;5.30;;;3.70;;
29916;SDS011;16786;49.466;11.068;2023-09-19T09:57:06;7.85;;;4.10;;
29916;SDS011;16786;49.466;11.068;2023-09-19T10:02:15;7.85;;;3.60;;
29916;SDS011;16786;49.466;11.068;2023-09-19T10:04:56;5.15;;;3.50;;
29916;SDS011;16786;49.466;11.068;2023-09-19T10:07:40;6.95;;;4.00;;
29916;SDS011;16786;49.466;11.068;2023-09-19T10:10:14;6.50;;;3.50;;
29916;SDS011;16786;49.466;11.068;2023-09-19T10:12:48;5.00;;;3.85;;
29916;SDS011;16786;49.466;11.068;2023-09-19T10:15:17;5.20;;;3.95;;
29916;SDS011;16786;49.466;11.068;2023-09-19T10:17:47;4.53;;;3.80;;
29916;SDS011;16786;49.466;11.068;2023-09-19T10:20:18;4.70;;;3.85;;
29916;SDS011;16786;49.466;11.068;2023-09-19T10:23:00;8.48;;;4.05;;
29916;SDS011;16786;49.466;11.068;2023-09-19T10:25:37;4.45;;;3.60;;
29916;SDS011;16786;49.466;11.068;2023-09-19T10:28:07;5.70;;;4.00;;
29916;SDS011;16786;49.466;11.068;2023-09-19T10:30:42;5.57;;;3.95;;
29916;SDS011;16786;49.466;11.068;2023-09-19T10:33:15;8.20;;;4.53;;
29916;SDS011;16786;49.466;11.068;2023-09-19T10:35:44;5.55;;;4.20;;
29916;SDS011;16786;49.466;11.068;2023-09-19T10:38:14;6.43;;;4.45;;
29916;SDS011;16786;49.466;11.068;2023-09-19T10:40:48;7.05;;;4.50;;
29916;SDS011;16786;49.466;11.068;2023-09-19T10:45:46;5.00;;;4.50;;
29916;SDS011;16786;49.466;11.068;2023-09-19T10:48:16;5.35;;;4.22;;
29916;SDS011;16786;49.466;11.068;2023-09-19T10:50:50;5.22;;;4.38;;
29916;SDS011;16786;49.466;11.068;2023-09-19T10:53:29;5.38;;;4.20;;
29916;SDS011;16786;49.466;11.068;2023-09-19T10:56:10;5.40;;;4.90;;
29916;SDS011;16786;49.466;11.068;2023-09-19T10:58:44;5.20;;;4.60;;
29916;SDS011;16786;49.466;11.068;2023-09-19T11:01:11;5.68;;;4.53;;
29916;SDS011;16786;49.466;11.068;2023-09-19T11:03:41;5.68;;;4.55;;
29916;SDS011;16786;49.466;11.068;2023-09-19T11:06:13;6.93;;;4.80;;
29916;SDS011;16786;49.466;11.068;2023-09-19T11:08:58;4.90;;;4.30;;
29916;SDS011;16786;49.466;11.068;2023-09-19T11:11:42;7.80;;;4.68;;
29916;SDS011;16786;49.466;11.068;2023-09-19T11:30:38;8.70;;;5.15;;
29916;SDS011;16786;49.466;11.068;2023-09-19T11:36:08;5.90;;;5.30;;
29916;SDS011;16786;49.466;11.068;2023-09-19T11:43:48;5.70;;;5.10;;
29916;SDS011;16786;49.466;11.068;2023-09-19T11:46:21;7.57;;;5.13;;
29916;SDS011;16786;49.466;11.068;2023-09-19T11:48:49;5.55;;;5.05;;
29916;SDS011;16786;49.466;11.068;2023-09-19T11:51:20;5.32;;;4.82;;
29916;SDS011;16786;49.466;11.068;2023-09-19T11:53:57;5.53;;;4.70;;
29916;SDS011;16786;49.466;11.068;2023-09-19T11:56:28;8.07;;;4.72;;
29916;SDS011;16786;49.466;11.068;2023-09-19T11:58:58;7.38;;;4.70;;
29916;SDS011;16786;49.466;11.068;2023-09-19T12:01:30;5.85;;;4.65;;
29916;SDS011;16786;49.466;11.068;2023-09-19T12:04:00;5.80;;;4.70;;
29916;SDS011;16786;49.466;11.068;2023-09-19T12:06:30;5.47;;;4.70;;
29916;SDS011;16786;49.466;11.068;2023-09-19T12:09:02;5.07;;;4.50;;
29916;SDS011;16786;49.466;11.068;2023-09-19T12:11:33;5.30;;;4.78;;
29916;SDS011;16786;49.466;11.068;2023-09-19T12:14:11;6.75;;;5.20;;
29916;SDS011;16786;49.466;11.068;2023-09-19T12:16:38;8.50;;;4.80;;
29916;SDS011;16786;49.466;11.068;2023-09-19T12:19:18;5.50;;;4.65;;
29916;SDS011;16786;49.466;11.068;2023-09-19T12:21:55;5.60;;;5.05;;
29916;SDS011;16786;49.466;11.068;2023-09-19T12:24:26;6.65;;;5.68;;
29916;SDS011;16786;49.466;11.068;2023-09-19T12:27:03;7.28;;;5.03;;
29916;SDS011;16786;49.466;11.068;2023-09-19T12:29:41;5.63;;;5.13;;
29916;SDS011;16786;49.466;11.068;2023-09-19T12:32:15;5.82;;;5.22;;
29916;SDS011;16786;49.466;11.068;2023-09-19T12:34:52;5.40;;;4.90;;
29916;SDS011;16786;49.466;11.068;2023-09-19T12:37:21;7.22;;;5.90;;
29916;SDS011;16786;49.466;11.068;2023-09-19T12:39:50;5.97;;;5.40;;
29916;SDS011;16786;49.466;11.068;2023-09-19T12:42:22;5.88;;;5.32;;
29916;SDS011;16786;49.466;11.068;2023-09-19T12:44:51;6.15;;;5.03;;
29916;SDS011;16786;49.466;11.068;2023-09-19T12:47:23;11.13;;;6.00;;
29916;SDS011;16786;49.466;11.068;2023-09-19T12:52:46;6.25;;;5.65;;
29916;SDS011;16786;49.466;11.068;2023-09-19T12:55:34;5.85;;;5.30;;
29916;SDS011;16786;49.466;11.068;2023-09-19T12:58:09;5.88;;;5.28;;
29916;SDS011;16786;49.466;11.068;2023-09-19T13:00:39;6.38;;;5.45;;
29916;SDS011;16786;49.466;11.068;2023-09-19T13:03:15;9.88;;;5.70;;
29916;SDS011;16786;49.466;11.068;2023-09-19T13:05:53;8.25;;;5.60;;
29916;SDS011;16786;49.466;11.068;2023-09-19T13:08:26;8.55;;;5.97;;
29916;SDS011;16786;49.466;11.068;2023-09-19T13:11:06;6.68;;;5.90;;
29916;SDS011;16786;49.466;11.068;2023-09-19T13:13:34;6.65;;;5.30;;
29916;SDS011;16786;49.466;11.068;2023-09-19T13:16:03;6.45;;;5.85;;
29916;SDS011;16786;49.466;11.068;2023-09-19T13:18:41;6.57;;;5.93;;
29916;SDS011;16786;49.466;11.068;2023-09-19T13:21:13;6.13;;;5.53;;
29916;SDS011;16786;49.466;11.068;2023-09-19T13:23:54;6.18;;;5.68;;
29916;SDS011;16786;49.466;11.068;2023-09-19T13:26:26;7.20;;;6.20;;
29916;SDS011;16786;49.466;11.068;2023-09-19T13:28:54;7.20;;;6.05;;
29916;SDS011;16786;49.466;11.068;2023-09-19T13:31:22;6.63;;;6.03;;
29916;SDS011;16786;49.466;11.068;2023-09-19T13:33:50;7.05;;;6.00;;
29916;SDS011;16786;49.466;11.068;2023-09-19T13:36:18;6.55;;;5.95;;
29916;SDS011;16786;49.466;11.068;2023-09-19T13:38:46;7.03;;;5.88;;
29916;SDS011;16786;49.466;11.068;2023-09-19T13:41:15;6.57;;;5.30;;
29916;SDS011;16786;49.466;11.068;2023-09-19T13:43:43;6.43;;;5.60;;
29916;SDS011;16786;49.466;11.068;2023-09-19T13:46:15;5.85;;;5.30;;
29916;SDS011;16786;49.466;11.068;2023-09-19T13:48:44;7.25;;;6.30;;
29916;SDS011;16786;49.466;11.068;2023-09-19T13:51:11;6.70;;;6.03;;
29916;SDS011;16786;49.466;11.068;2023-09-19T13:53:39;6.15;;;5.65;;
29916;SDS011;16786;49.466;11.068;2023-09-19T13:56:06;7.32;;;5.70;;
29916;SDS011;16786;49.466;11.068;2023-09-19T13:58:33;6.97;;;6.30;;
29916;SDS011;16786;49.466;11.068;2023-09-19T14:01:01;6.60;;;5.90;;
29916;SDS011;16786;49.466;11.068;2023-09-19T14:03:28;6.90;;;6.38;;
29916;SDS011;16786;49.466;11.068;2023-09-19T14:05:56;7.22;;;6.38;;
29916;SDS011;16786;49.466;11.068;2023-09-19T14:08:24;6.60;;;6.00;;
29916;SDS011;16786;49.466;11.068;2023-09-19T14:10:51;8.00;;;5.70;;
29916;SDS011;16786;49.466;11.068;2023-09-19T14:13:20;7.10;;;6.50;;
29916;SDS011;16786;49.466;11.068;2023-09-19T14:15:47;7.85;;;6.07;;
29916;SDS011;16786;49.466;11.068;2023-09-19T14:18:14;6.43;;;5.82;;
29916;SDS011;16786;49.466;11.068;2023-09-19T14:20:41;6.80;;;6.10;;
29916;SDS011;16786;49.466;11.068;2023-09-19T14:23:09;6.40;;;5.88;;
29916;SDS011;16786;49.466;11.068;2023-09-19T14:25:36;6.95;;;6.35;;
29916;SDS011;16786;49.466;11.068;2023-09-19T14:28:05;6.95;;;6.35;;
29916;SDS011;16786;49.466;11.068;2023-09-19T14:30:35;7.38;;;6.10;;
29916;SDS011;16786;49.466;11.068;2023-09-19T14:33:04;6.57;;;6.00;;
29916;SDS011;16786;49.466;11.068;2023-09-19T14:35:32;6.25;;;5.65;;
29916;SDS011;16786;49.466;11.068;2023-09-19T14:37:59;7.25;;;5.32;;
29916;SDS011;16786;49.466;11.068;2023-09-19T14:40:27;5.40;;;4.90;;
29916;SDS011;16786;49.466;11.068;2023-09-19T14:42:54;5.95;;;5.22;;
29916;SDS011;16786;49.466;11.068;2023-09-19T14:45:21;6.93;;;5.15;;
29916;SDS011;16786;49.466;11.068;2023-09-19T14:47:50;8.20;;;5.20;;
29916;SDS011;16786;49.466;11.068;2023-09-19T14:50:21;6.10;;;5.50;;
29916;SDS011;16786;49.466;11.068;2023-09-19T14:52:49;6.25;;;5.30;;
29916;SDS011;16786;49.466;11.068;2023-09-19T14:55:18;6.03;;;5.28;;
29916;SDS011;16786;49.466;11.068;2023-09-19T14:57:48;5.90;;;5.30;;
29916;SDS011;16786;49.466;11.068;2023-09-19T15:00:17;7.75;;;5.50;;
29916;SDS011;16786;49.466;11.068;2023-09-19T15:02:47;6.97;;;5.85;;
29916;SDS011;16786;49.466;11.068;2023-09-19T15:05:16;7.35;;;5.50;;
29916;SDS011;16786;49.466;11.068;2023-09-19T15:07:46;6.20;;;5.60;;
29916;SDS011;16786;49.466;11.068;2023-09-19T15:10:13;6.35;;;5.50;;
29916;SDS011;16786;49.466;11.068;2023-09-19T15:12:41;5.55;;;5.05;;
29916;SDS011;16786;49.466;11.068;2023-09-19T15:15:08;6.15;;;5.05;;
29916;SDS011;16786;49.466;11.068;2023-09-19T15:17:36;6.13;;;5.50;;
29916;SDS011;16786;49.466;11.068;2023-09-19T15:20:04;5.45;;;4.90;;
29916;SDS011;16786;49.466;11.068;2023-09-19T15:22:33;5.70;;;4.95;;
29916;SDS011;16786;49.466;11.068;2023-09-19T15:25:02;5.78;;;5.15;;
29916;SDS011;16786;49.466;11.068;2023-09-19T15:27:30;5.47;;;4.97;;
29916;SDS011;16786;49.466;11.068;2023-09-19T15:29:59;8.35;;;5.20;;
29916;SDS011;16786;49.466;11.068;2023-09-19T15:32:29;5.70;;;5.20;;
29916;SDS011;16786;49.466;11.068;2023-09-19T15:34:56;7.50;;;5.75;;
29916;SDS011;16786;49.466;11.068;2023-09-19T15:37:24;5.95;;;5.30;;
29916;SDS011;16786;49.466;11.068;2023-09-19T15:39:52;6.38;;;5.28;;
29916;SDS011;16786;49.466;11.068;2023-09-19T15:42:20;5.57;;;5.07;;
29916;SDS011;16786;49.466;11.068;2023-09-19T15:44:47;6.28;;;5.63;;
29916;SDS011;16786;49.466;11.068;2023-09-19T15:47:16;6.53;;;5.70;;